Terminal Aerodrome Forecast
Issued by NWS

Home | Current Version | Previous Version | Graphics & Text | Print | Product List | Glossary On
Versions: 1 2 3 4 5 6 7 8 9 10 11 12 13 14 15 16 17
908
FTUS43 KBIS 170524
TAFJMS
TAF
KJMS 170524Z 1706/1806 28007KT P6SM FEW250
     FM171400 24006KT P6SM FEW250
     FM171700 22010KT P6SM FEW250
     FM172200 22015KT P6SM FEW250
     FM180000 21013KT P6SM FEW250 WS020/25035KT
     FM180300 22012KT P6SM FEW250=

USA.gov is the U.S. government's official web portal to all federal, state and local government web resources and services.